createdAt,value
2022-12-25T00:02:20.831Z,101406.72
2022-12-25T00:04:47.505Z,101400.63
2022-12-25T00:07:14.279Z,101393.66
2022-12-25T00:09:40.906Z,101399.97
2022-12-25T00:12:07.710Z,101391.97
2022-12-25T00:14:34.535Z,101411.72
2022-12-25T00:17:01.380Z,101376.53
2022-12-25T00:19:28.030Z,101387.38
2022-12-25T00:21:54.728Z,101345.41
2022-12-25T00:24:21.343Z,101356.16
2022-12-25T00:26:48.074Z,101350.03
2022-12-25T00:29:14.907Z,101374.28
2022-12-25T00:31:41.593Z,101365.44
2022-12-25T00:34:08.277Z,101375.97
2022-12-25T00:36:41.170Z,101354.00
2022-12-25T00:39:08.450Z,101350.41
2022-12-25T00:41:53.648Z,101372.78
2022-12-25T00:44:20.682Z,101357.84
2022-12-25T00:46:47.460Z,101349.75
2022-12-25T00:49:14.254Z,101369.88
2022-12-25T00:51:41.019Z,101367.16
2022-12-25T00:54:08.638Z,101342.91
2022-12-25T00:56:35.697Z,101374.97
2022-12-25T00:59:02.425Z,101365.00
2022-12-25T01:01:29.423Z,101348.25
2022-12-25T01:03:56.264Z,101381.06
2022-12-25T01:06:23.056Z,101385.28
2022-12-25T01:09:09.370Z,101373.19
2022-12-25T01:11:36.420Z,101364.53
2022-12-25T01:14:03.182Z,101343.06
2022-12-25T01:16:30.546Z,101375.25
2022-12-25T01:18:57.357Z,101382.84
2022-12-25T01:21:24.596Z,101386.03
2022-12-25T01:23:52.639Z,101385.19
2022-12-25T01:26:23.199Z,101381.22
2022-12-25T01:28:51.121Z,101391.19
2022-12-25T01:31:21.080Z,101385.00
2022-12-25T01:33:48.752Z,101357.91
2022-12-25T01:36:24.179Z,101405.59
2022-12-25T01:38:52.486Z,101403.25
2022-12-25T01:41:22.015Z,101345.69
2022-12-25T01:44:05.794Z,101417.03
2022-12-25T01:46:32.974Z,101402.31
2022-12-25T01:49:04.963Z,101410.75
2022-12-25T01:51:35.862Z,101397.56
2022-12-25T01:54:07.226Z,101417.88
2022-12-25T01:56:36.448Z,101389.28
2022-12-25T01:59:06.425Z,101380.06
2022-12-25T02:01:33.407Z,101399.41
2022-12-25T02:04:09.322Z,101401.88
2022-12-25T02:06:36.012Z,101394.16
2022-12-25T02:09:03.124Z,101399.06
2022-12-25T02:11:48.387Z,101401.69
2022-12-25T02:14:15.078Z,101397.81
2022-12-25T02:16:57.475Z,101403.72
2022-12-25T02:20:02.980Z,101413.66
2022-12-25T02:22:56.517Z,101402.19
2022-12-25T02:25:56.818Z,101375.66
2022-12-25T02:28:30.586Z,101399.34
2022-12-25T02:31:03.576Z,101390.69
2022-12-25T02:34:03.738Z,101407.50
2022-12-25T02:36:51.158Z,101379.38
2022-12-25T02:39:58.276Z,101380.03
2022-12-25T02:42:55.225Z,101353.59
2022-12-25T02:45:50.614Z,101410.19
2022-12-25T02:48:39.877Z,101407.91
2022-12-25T02:51:29.052Z,101411.25
2022-12-25T02:54:17.357Z,101378.09
2022-12-25T02:57:06.444Z,101417.19
2022-12-25T02:59:56.510Z,101399.84
2022-12-25T03:02:43.704Z,101390.56
2022-12-25T03:05:33.868Z,101398.81
2022-12-25T03:08:06.192Z,101389.00
2022-12-25T03:10:54.074Z,101376.44
2022-12-25T03:13:24.490Z,101397.34
2022-12-25T03:16:10.158Z,101385.97
2022-12-25T03:18:36.853Z,101362.53
2022-12-25T03:21:21.982Z,101335.06
2022-12-25T03:24:22.238Z,101339.28
2022-12-25T03:26:55.185Z,101320.06
2022-12-25T03:29:52.100Z,101364.94
2022-12-25T03:32:38.282Z,101299.78
2022-12-25T03:35:31.657Z,101364.09
2022-12-25T03:38:19.718Z,101359.16
2022-12-25T03:41:31.571Z,101322.19
2022-12-25T03:44:22.346Z,101339.72
2022-12-25T03:47:17.952Z,101305.94
2022-12-25T03:50:08.512Z,101326.00
2022-12-25T03:52:56.593Z,101345.00
2022-12-25T03:55:43.865Z,101329.38
2022-12-25T03:58:39.749Z,101321.16
2022-12-25T04:01:25.109Z,101298.13
2022-12-25T04:04:10.566Z,101310.50
2022-12-25T04:06:55.985Z,101306.78
2022-12-25T04:09:41.481Z,101302.59
2022-12-25T04:12:26.720Z,101303.19
2022-12-25T04:15:11.916Z,101303.84
2022-12-25T04:17:57.596Z,101295.19
2022-12-25T04:20:43.183Z,101298.56
2022-12-25T04:23:28.726Z,101307.84
2022-12-25T04:26:16.926Z,101308.69
2022-12-25T04:29:02.434Z,101278.69
2022-12-25T04:31:47.807Z,101301.53
2022-12-25T04:34:33.283Z,101308.47
2022-12-25T04:36:59.970Z,101271.63
2022-12-25T04:39:26.952Z,101267.09
2022-12-25T04:41:53.627Z,101308.16
2022-12-25T04:44:20.297Z,101305.59
2022-12-25T04:46:47.003Z,101291.47
2022-12-25T04:49:13.726Z,101307.41
2022-12-25T04:51:40.460Z,101305.31
2022-12-25T04:54:07.152Z,101301.47
2022-12-25T04:56:34.472Z,101310.88
2022-12-25T04:59:03.365Z,101259.28
2022-12-25T05:01:30.153Z,101304.47
2022-12-25T05:03:57.005Z,101308.44
2022-12-25T05:06:23.678Z,101318.59
2022-12-25T05:08:50.431Z,101317.63
2022-12-25T05:11:17.359Z,101329.94
2022-12-25T05:13:44.618Z,101297.69
2022-12-25T05:16:20.022Z,101332.13
2022-12-25T05:18:50.842Z,101321.56
2022-12-25T05:21:17.948Z,101335.50
2022-12-25T05:23:50.796Z,101338.25
2022-12-25T05:26:20.169Z,101340.59
2022-12-25T05:28:47.005Z,101330.97
2022-12-25T05:31:13.939Z,101335.19
2022-12-25T05:33:41.032Z,101292.41
2022-12-25T05:36:10.352Z,101341.59
2022-12-25T05:38:37.561Z,101294.81
2022-12-25T05:41:04.404Z,101304.41
2022-12-25T05:43:31.242Z,101321.13
2022-12-25T05:45:58.013Z,101330.59
2022-12-25T05:48:24.678Z,101318.34
2022-12-25T05:50:51.358Z,101313.06
2022-12-25T05:53:18.055Z,101306.31
2022-12-25T05:55:44.830Z,101303.66
2022-12-25T05:58:12.717Z,101316.22
2022-12-25T06:00:40.693Z,101281.19
2022-12-25T06:03:07.467Z,101304.81
2022-12-25T06:05:34.385Z,101314.09
2022-12-25T06:08:01.118Z,101312.63
2022-12-25T06:10:27.795Z,101283.28
2022-12-25T06:12:54.924Z,101304.25
2022-12-25T06:15:21.753Z,101303.31
2022-12-25T06:17:48.477Z,101273.97
2022-12-25T06:20:15.258Z,101293.19
2022-12-25T06:22:41.897Z,101287.16
2022-12-25T06:25:09.296Z,101284.28
2022-12-25T06:27:35.997Z,101294.19
2022-12-25T06:30:03.114Z,101276.88
2022-12-25T06:32:29.880Z,101270.09
2022-12-25T06:34:56.520Z,101260.28
2022-12-25T06:37:23.252Z,101262.72
2022-12-25T06:39:50.069Z,101248.47
2022-12-25T06:42:16.726Z,101270.19
2022-12-25T06:44:43.453Z,101246.56
2022-12-25T06:47:10.342Z,101277.66
2022-12-25T06:49:37.017Z,101247.28
2022-12-25T06:52:03.690Z,101262.00
2022-12-25T06:54:30.389Z,101255.28
2022-12-25T06:56:57.087Z,101217.72
2022-12-25T06:59:23.850Z,101228.56
2022-12-25T07:01:53.709Z,101227.81
2022-12-25T07:04:32.114Z,101257.94
2022-12-25T07:07:08.412Z,101258.69
2022-12-25T07:09:36.445Z,101253.41
2022-12-25T07:12:13.795Z,101264.63
2022-12-25T07:14:40.582Z,101260.28
2022-12-25T07:17:07.428Z,101225.25
2022-12-25T07:19:35.339Z,101240.47
2022-12-25T07:22:05.054Z,101258.28
2022-12-25T07:24:31.745Z,101219.50
2022-12-25T07:26:58.388Z,101225.16
2022-12-25T07:29:25.104Z,101240.09
2022-12-25T07:31:51.801Z,101251.31
2022-12-25T07:34:18.780Z,101222.19
2022-12-25T07:36:46.067Z,101239.88
2022-12-25T07:39:13.183Z,101234.44
2022-12-25T07:41:40.322Z,101237.94
2022-12-25T07:44:07.058Z,101199.50
2022-12-25T07:46:33.783Z,101192.88
2022-12-25T07:49:01.003Z,101252.00
2022-12-25T07:51:30.174Z,101276.34
2022-12-25T07:53:57.408Z,101283.44
2022-12-25T07:56:24.405Z,101279.44
2022-12-25T07:58:51.114Z,101255.59
2022-12-25T08:01:21.430Z,101296.66
2022-12-25T08:03:55.953Z,101299.19
2022-12-25T08:06:25.028Z,101295.06
2022-12-25T08:08:51.754Z,101282.41
2022-12-25T08:11:18.470Z,101302.06
2022-12-25T08:13:45.115Z,101287.66
2022-12-25T08:16:12.019Z,101296.09
2022-12-25T08:18:39.514Z,101289.72
2022-12-25T08:21:12.302Z,101286.97
2022-12-25T08:23:41.857Z,101299.47
2022-12-25T08:26:13.403Z,101297.56
2022-12-25T08:28:40.209Z,101293.44
2022-12-25T08:31:14.682Z,101320.16
2022-12-25T08:33:41.877Z,101315.09
2022-12-25T08:36:11.155Z,101289.34
2022-12-25T08:38:38.923Z,101297.09
2022-12-25T08:41:06.227Z,101276.84
2022-12-25T08:43:32.946Z,101279.75
2022-12-25T08:45:59.894Z,101281.69
2022-12-25T08:48:27.836Z,101292.53
2022-12-25T08:50:54.780Z,101274.91
2022-12-25T08:53:22.131Z,101296.84
2022-12-25T08:55:48.851Z,101302.66
2022-12-25T08:58:16.604Z,101274.25
2022-12-25T09:00:43.625Z,101287.25
2022-12-25T09:03:10.500Z,101303.59
2022-12-25T09:05:37.964Z,101320.94
2022-12-25T09:08:04.922Z,101305.31
2022-12-25T09:10:35.030Z,101300.00
2022-12-25T09:13:02.775Z,101296.41
2022-12-25T09:15:29.772Z,101300.84
2022-12-25T09:17:56.604Z,101304.56
2022-12-25T09:20:23.353Z,101298.53
2022-12-25T09:22:50.269Z,101277.47
2022-12-25T09:25:17.319Z,101300.47
2022-12-25T09:27:44.082Z,101293.25
2022-12-25T09:30:11.473Z,101293.03
2022-12-25T09:32:40.378Z,101289.47
2022-12-25T09:35:08.479Z,101276.84
2022-12-25T09:37:35.399Z,101295.78
2022-12-25T09:40:02.267Z,101296.84
2022-12-25T09:42:31.492Z,101266.03
2022-12-25T09:45:03.149Z,101286.50
2022-12-25T09:47:33.811Z,101292.53
2022-12-25T09:50:12.167Z,101288.91
2022-12-25T09:52:41.559Z,101287.94
2022-12-25T09:55:14.731Z,101297.59
2022-12-25T09:57:45.742Z,101286.50
2022-12-25T10:00:18.247Z,101254.13
2022-12-25T10:02:57.357Z,101246.56
2022-12-25T10:05:47.856Z,101255.13
2022-12-25T10:08:35.833Z,101269.94
2022-12-25T10:11:27.405Z,101270.66
2022-12-25T10:14:15.261Z,101272.13
2022-12-25T10:17:17.963Z,101260.59
2022-12-25T10:20:03.391Z,101241.81
2022-12-25T10:23:00.657Z,101252.38
2022-12-25T10:25:27.537Z,101236.63
2022-12-25T10:28:04.548Z,101246.97
2022-12-25T10:30:32.394Z,101249.25
2022-12-25T10:32:59.289Z,101252.53
2022-12-25T10:35:28.923Z,101241.47
2022-12-25T10:37:59.016Z,101257.59
2022-12-25T10:40:28.906Z,101260.47
2022-12-25T10:43:04.447Z,101235.66
2022-12-25T10:45:31.074Z,101219.91
2022-12-25T10:48:07.734Z,101227.13
2022-12-25T10:50:34.867Z,101208.50
2022-12-25T10:53:05.605Z,101234.22
2022-12-25T10:55:33.274Z,101212.09
2022-12-25T10:58:02.022Z,101229.78
2022-12-25T11:00:31.098Z,101242.31
2022-12-25T11:02:58.450Z,101234.84
2022-12-25T11:05:35.988Z,101242.19
2022-12-25T11:08:03.705Z,101218.50
2022-12-25T11:10:44.472Z,101201.19
2022-12-25T11:13:24.582Z,101227.53
2022-12-25T11:16:25.337Z,101217.53
2022-12-25T11:18:52.699Z,101208.75
2022-12-25T11:21:34.830Z,101175.91
2022-12-25T11:24:20.055Z,101159.53
2022-12-25T11:26:55.824Z,101187.94
2022-12-25T11:29:40.923Z,101172.75
2022-12-25T11:32:16.833Z,101131.59
2022-12-25T11:34:46.644Z,101087.59
2022-12-25T11:37:20.198Z,101140.97
2022-12-25T11:39:47.154Z,101151.56
2022-12-25T11:42:28.870Z,101110.00
2022-12-25T11:44:55.502Z,101145.81
2022-12-25T11:47:30.572Z,101110.31
2022-12-25T11:50:27.028Z,101136.88
2022-12-25T11:52:55.457Z,101140.38
2022-12-25T11:55:39.042Z,101132.31
2022-12-25T11:58:21.189Z,101126.28
2022-12-25T12:00:51.156Z,101133.16
2022-12-25T12:03:36.980Z,101121.72
2022-12-25T12:06:33.112Z,101094.75
2022-12-25T12:09:41.575Z,101109.44
2022-12-25T12:12:26.422Z,101091.66
2022-12-25T12:15:00.937Z,101089.09
2022-12-25T12:17:27.646Z,101083.91
2022-12-25T12:19:54.425Z,101063.72
2022-12-25T12:22:26.815Z,101091.38
2022-12-25T12:25:01.592Z,101067.09
2022-12-25T12:27:40.465Z,101097.38
2022-12-25T12:30:22.061Z,101086.19
2022-12-25T12:32:52.914Z,101056.03
2022-12-25T12:35:32.106Z,101081.47
2022-12-25T12:38:02.853Z,101067.28
2022-12-25T12:40:38.949Z,101062.09
2022-12-25T12:43:23.716Z,101079.31
2022-12-25T12:45:56.855Z,101069.19
2022-12-25T12:48:28.400Z,101053.31
2022-12-25T12:51:13.304Z,101023.91
2022-12-25T12:53:42.793Z,101055.00
2022-12-25T12:56:18.445Z,101082.19
2022-12-25T12:58:50.936Z,101037.56
2022-12-25T13:01:18.240Z,101063.75
2022-12-25T13:04:00.562Z,101064.59
2022-12-25T13:06:40.967Z,101065.28
2022-12-25T13:09:22.823Z,101054.50
2022-12-25T13:11:50.265Z,101021.06
2022-12-25T13:14:21.041Z,100977.31
2022-12-25T13:16:50.248Z,101027.75
2022-12-25T13:19:24.338Z,100989.69
2022-12-25T13:22:01.003Z,101030.66
2022-12-25T13:24:30.467Z,100996.53
2022-12-25T13:26:58.956Z,101014.19
2022-12-25T13:29:31.442Z,101019.69
2022-12-25T13:32:00.171Z,101021.84
2022-12-25T20:32:23.953Z,100852.91
2022-12-25T20:34:51.029Z,100886.25
2022-12-25T20:37:17.770Z,100900.53
2022-12-25T20:39:44.462Z,100880.00
2022-12-25T20:42:11.406Z,100897.50
2022-12-25T20:44:38.231Z,100865.06
2022-12-25T20:47:05.176Z,100892.19
2022-12-25T20:49:32.687Z,100898.22
2022-12-25T20:52:04.896Z,100850.59
2022-12-25T20:54:32.571Z,100889.81
2022-12-25T20:56:59.367Z,100902.53
2022-12-25T20:59:25.999Z,100890.50
2022-12-25T21:01:55.591Z,100870.13
2022-12-25T21:04:22.612Z,100893.16
2022-12-25T21:06:49.309Z,100891.97
2022-12-25T21:09:15.996Z,100813.00
2022-12-25T21:11:42.864Z,100891.97
2022-12-25T21:14:09.698Z,100895.81
2022-12-25T21:16:36.587Z,100884.19
2022-12-25T21:19:03.344Z,100886.84
2022-12-25T21:21:29.972Z,100870.88
2022-12-25T21:23:57.243Z,100872.56
2022-12-25T21:26:29.308Z,100890.78
2022-12-25T21:29:00.381Z,100884.31
2022-12-25T21:31:28.300Z,100899.44
2022-12-25T21:33:57.465Z,100868.97
2022-12-25T21:36:28.941Z,100901.38
2022-12-25T21:39:02.192Z,100852.16
2022-12-25T21:41:30.686Z,100887.41
2022-12-25T21:43:57.820Z,100840.16
2022-12-25T21:46:25.168Z,100861.88
2022-12-25T21:48:52.233Z,100903.19
2022-12-25T21:51:43.854Z,100893.44
2022-12-25T21:54:11.333Z,100902.47
2022-12-25T21:56:44.440Z,100907.75
2022-12-25T21:59:17.157Z,100852.66
2022-12-25T22:01:44.650Z,100894.63
2022-12-25T22:04:12.945Z,100906.91
2022-12-25T22:06:58.487Z,100907.19
2022-12-25T22:09:25.479Z,100916.66
2022-12-25T22:12:10.788Z,100911.75
2022-12-25T22:14:55.256Z,100919.44
2022-12-25T22:17:44.311Z,100924.75
2022-12-25T22:20:18.774Z,100921.09
2022-12-25T22:22:45.603Z,100885.81
2022-12-25T22:25:13.732Z,100914.84
2022-12-25T22:27:42.290Z,100914.16
2022-12-25T22:30:16.096Z,100921.09
2022-12-25T22:32:43.081Z,100896.75
2022-12-25T22:35:12.343Z,100914.00
2022-12-25T22:37:40.724Z,100927.22
2022-12-25T22:40:09.917Z,100931.69
2022-12-25T22:42:37.126Z,100889.44
2022-12-25T22:45:04.455Z,100849.13
2022-12-25T22:47:31.375Z,100915.75
2022-12-25T22:49:58.226Z,100913.94
2022-12-25T22:52:24.991Z,100881.28
2022-12-25T22:54:51.889Z,100913.72
2022-12-25T22:57:18.589Z,100907.81
2022-12-25T22:59:45.307Z,100904.81
2022-12-25T23:02:12.199Z,100907.19
2022-12-25T23:04:39.035Z,100909.59
2022-12-25T23:07:05.973Z,100897.84
2022-12-25T23:09:32.851Z,100885.81
2022-12-25T23:11:59.898Z,100893.25
2022-12-25T23:14:39.083Z,100902.50
2022-12-25T23:17:31.054Z,100899.03
2022-12-25T23:20:18.136Z,100889.06
2022-12-25T23:23:04.671Z,100880.91
2022-12-25T23:25:50.400Z,100877.44
2022-12-25T23:28:40.177Z,100894.47
2022-12-25T23:31:07.415Z,100904.81
2022-12-25T23:33:34.214Z,100904.81
2022-12-25T23:36:01.160Z,100903.13
2022-12-25T23:38:28.023Z,100898.94
2022-12-25T23:40:54.748Z,100842.66
2022-12-25T23:43:21.511Z,100876.81
2022-12-25T23:45:48.238Z,100898.22
2022-12-25T23:48:15.031Z,100906.47
2022-12-25T23:50:41.752Z,100887.78
2022-12-25T23:53:09.900Z,100884.63
2022-12-25T23:55:36.718Z,100859.66
2022-12-25T23:58:03.494Z,100869.25
